createdAt,value
2019-03-29T00:01:10.840Z,61.20
2019-03-29T00:03:44.232Z,61.30
2019-03-29T00:06:17.461Z,61.10
2019-03-29T00:08:49.007Z,61.10
2019-03-29T00:11:20.518Z,61.20
2019-03-29T00:13:52.109Z,61.30
2019-03-29T00:16:23.222Z,61.40
2019-03-29T00:18:54.769Z,61.50
2019-03-29T00:21:26.309Z,62.10
2019-03-29T00:24:06.691Z,62.30
2019-03-29T00:26:30.880Z,62.80
2019-03-29T00:29:03.104Z,62.70
2019-03-29T00:31:34.716Z,62.60
2019-03-29T00:34:05.911Z,62.40
2019-03-29T00:36:37.459Z,62.10
2019-03-29T00:39:08.837Z,61.90
2019-03-29T00:41:40.366Z,62.00
2019-03-29T00:44:12.007Z,62.50
2019-03-29T00:46:43.226Z,63.00
2019-03-29T00:49:15.644Z,63.30
2019-03-29T00:51:51.059Z,63.80
2019-03-29T00:54:24.723Z,64.10
2019-03-29T00:56:55.936Z,64.50
2019-03-29T00:59:27.033Z,64.60
2019-03-29T01:01:58.579Z,64.60
2019-03-29T01:04:30.159Z,64.70
2019-03-29T01:07:01.926Z,64.60
2019-03-29T01:09:33.050Z,64.50
2019-03-29T01:12:04.339Z,64.40
2019-03-29T01:14:36.263Z,63.80
2019-03-29T01:17:07.342Z,63.80
2019-03-29T01:19:39.075Z,64.40
2019-03-29T01:22:10.722Z,64.40
2019-03-29T01:24:42.181Z,64.40
2019-03-29T01:27:13.540Z,64.50
2019-03-29T01:29:44.891Z,64.40
2019-03-29T01:32:16.375Z,64.30
2019-03-29T01:34:48.333Z,63.50
2019-03-29T01:37:20.182Z,63.20
2019-03-29T01:39:51.527Z,62.60
2019-03-29T01:42:22.945Z,62.40
2019-03-29T01:44:54.219Z,62.10
2019-03-29T01:47:25.338Z,62.10
2019-03-29T01:49:56.966Z,61.90
2019-03-29T01:52:31.324Z,61.90
2019-03-29T01:55:01.699Z,61.60
2019-03-29T01:57:33.210Z,61.60
2019-03-29T02:00:05.359Z,62.40
2019-03-29T02:02:36.541Z,61.50
2019-03-29T02:05:09.486Z,61.50
2019-03-29T02:07:40.798Z,61.10
2019-03-29T02:10:12.695Z,61.30
2019-03-29T02:12:43.840Z,61.10
2019-03-29T02:15:15.083Z,61.10
2019-03-29T02:17:47.982Z,60.80
2019-03-29T02:20:19.186Z,60.80
2019-03-29T02:22:50.414Z,60.70
2019-03-29T02:25:22.307Z,60.60
2019-03-29T02:27:53.461Z,60.60
2019-03-29T02:30:24.695Z,60.70
2019-03-29T02:32:56.101Z,61.00
2019-03-29T02:35:27.904Z,61.00
2019-03-29T02:37:58.930Z,61.20
2019-03-29T02:40:30.667Z,61.60
2019-03-29T02:43:01.855Z,61.50
2019-03-29T02:45:33.697Z,61.50
2019-03-29T02:48:05.031Z,61.40
2019-03-29T02:50:36.850Z,61.40
2019-03-29T02:53:12.627Z,61.60
2019-03-29T02:55:44.199Z,62.20
2019-03-29T02:58:15.704Z,62.70
2019-03-29T03:00:47.973Z,62.70
2019-03-29T03:03:19.658Z,62.90
2019-03-29T03:05:53.493Z,62.90
2019-03-29T03:08:24.827Z,63.30
2019-03-29T03:10:56.310Z,63.40
2019-03-29T03:13:27.572Z,63.20
2019-03-29T03:16:07.190Z,62.90
2019-03-29T03:18:42.730Z,62.40
2019-03-29T03:21:14.399Z,62.60
2019-03-29T03:23:45.953Z,62.50
2019-03-29T03:26:17.231Z,62.20
2019-03-29T03:28:48.417Z,62.00
2019-03-29T03:31:19.756Z,61.70
2019-03-29T03:33:51.102Z,61.50
2019-03-29T03:36:22.939Z,61.20
2019-03-29T03:38:54.647Z,61.40
2019-03-29T03:41:26.442Z,61.80
2019-03-29T03:43:58.957Z,61.90
2019-03-29T03:46:30.128Z,62.10
2019-03-29T03:49:01.691Z,62.10
2019-03-29T03:51:33.482Z,62.10
2019-03-29T03:54:05.035Z,61.60
2019-03-29T03:56:37.160Z,61.50
2019-03-29T03:59:13.221Z,61.90
2019-03-29T04:01:46.846Z,62.30
2019-03-29T04:04:18.013Z,62.40
2019-03-29T04:06:50.904Z,62.30
2019-03-29T04:09:22.350Z,62.60
2019-03-29T04:11:53.793Z,62.60
2019-03-29T04:14:26.310Z,62.60
2019-03-29T04:16:58.521Z,62.50
2019-03-29T04:19:29.561Z,62.60
2019-03-29T04:22:00.738Z,63.20
2019-03-29T04:24:32.286Z,63.70
2019-03-29T04:27:03.810Z,63.80
2019-03-29T04:29:35.345Z,64.00
2019-03-29T04:32:06.544Z,64.70
2019-03-29T04:34:37.688Z,64.80
2019-03-29T04:37:08.803Z,65.20
2019-03-29T04:39:41.810Z,66.70
2019-03-29T04:42:12.950Z,66.70
2019-03-29T04:44:46.374Z,67.10
2019-03-29T04:47:18.476Z,67.20
2019-03-29T04:49:50.562Z,67.60
2019-03-29T04:52:21.762Z,67.60
2019-03-29T04:54:52.915Z,67.30
2019-03-29T04:57:24.363Z,67.30
2019-03-29T04:59:57.960Z,67.10
2019-03-29T05:02:30.459Z,67.00
2019-03-29T05:05:01.876Z,67.10
2019-03-29T05:07:36.859Z,67.00
2019-03-29T05:10:19.914Z,67.30
2019-03-29T05:12:41.253Z,66.80
2019-03-29T05:15:12.732Z,66.40
2019-03-29T05:17:43.897Z,66.10
2019-03-29T05:20:15.320Z,65.90
2019-03-29T05:22:46.553Z,65.40
2019-03-29T05:25:19.450Z,65.20
2019-03-29T05:27:50.576Z,64.10
2019-03-29T05:30:21.819Z,64.00
2019-03-29T05:32:53.712Z,63.60
2019-03-29T05:35:24.970Z,63.30
2019-03-29T05:37:56.579Z,63.10
2019-03-29T05:40:34.841Z,62.90
2019-03-29T05:43:01.003Z,62.90
2019-03-29T05:45:32.163Z,62.60
2019-03-29T05:48:05.697Z,62.90
2019-03-29T05:50:42.708Z,62.80
2019-03-29T05:53:14.327Z,61.90
2019-03-29T05:55:48.305Z,62.10
2019-03-29T05:58:19.555Z,61.70
2019-03-29T06:00:51.132Z,62.00
2019-03-29T06:03:29.347Z,62.30
2019-03-29T06:06:13.514Z,62.50
2019-03-29T06:08:45.907Z,62.60
2019-03-29T06:11:17.053Z,61.80
2019-03-29T06:13:48.794Z,60.20
2019-03-29T06:16:21.194Z,58.90
2019-03-29T06:18:52.815Z,58.90
2019-03-29T06:21:24.719Z,58.40
2019-03-29T06:23:55.886Z,58.10
2019-03-29T06:26:27.895Z,57.90
2019-03-29T06:28:59.449Z,57.80
2019-03-29T06:31:31.137Z,57.30
2019-03-29T06:34:02.244Z,57.10
2019-03-29T06:36:33.892Z,56.60
2019-03-29T06:39:10.340Z,56.80
2019-03-29T06:41:41.508Z,56.80
2019-03-29T06:44:13.528Z,56.80
2019-03-29T06:46:46.878Z,56.00
2019-03-29T06:49:18.002Z,55.80
2019-03-29T06:51:52.307Z,55.70
2019-03-29T06:54:32.944Z,55.60
2019-03-29T06:57:17.885Z,55.30
2019-03-29T06:59:51.130Z,54.90
2019-03-29T07:02:22.799Z,55.10
2019-03-29T07:04:53.934Z,55.00
2019-03-29T07:07:25.060Z,54.90
2019-03-29T07:10:04.493Z,54.60
2019-03-29T07:12:56.248Z,54.60
2019-03-29T07:15:26.761Z,54.30
2019-03-29T07:17:57.718Z,54.10
2019-03-29T07:20:29.657Z,54.10
2019-03-29T07:23:02.097Z,53.90
2019-03-29T07:25:34.863Z,53.80
2019-03-29T07:28:06.207Z,53.80
2019-03-29T07:30:39.856Z,53.50
2019-03-29T07:33:10.978Z,53.50
2019-03-29T07:35:42.159Z,53.70
2019-03-29T07:38:13.304Z,53.70
2019-03-29T07:40:44.943Z,53.30
2019-03-29T07:43:16.132Z,53.00
2019-03-29T07:45:50.364Z,52.80
2019-03-29T07:48:21.840Z,52.70
2019-03-29T07:50:55.768Z,52.60
2019-03-29T07:53:27.126Z,52.60
2019-03-29T07:56:03.379Z,52.00
2019-03-29T07:58:35.678Z,51.90
2019-03-29T08:01:08.356Z,52.10
2019-03-29T08:03:39.623Z,51.40
2019-03-29T08:06:30.853Z,51.30
2019-03-29T08:09:22.223Z,51.10
2019-03-29T08:11:48.728Z,50.40
2019-03-29T08:14:21.531Z,50.10
2019-03-29T08:16:56.076Z,49.70
2019-03-29T08:19:27.406Z,49.80
2019-03-29T08:22:01.239Z,49.50
2019-03-29T08:24:33.402Z,49.30
2019-03-29T08:27:04.787Z,49.70
2019-03-29T08:29:37.069Z,50.30
2019-03-29T08:32:10.400Z,50.50
2019-03-29T08:34:44.027Z,50.90
2019-03-29T08:37:15.184Z,50.70
2019-03-29T08:39:49.622Z,51.00
2019-03-29T08:42:21.537Z,51.40
2019-03-29T08:44:53.250Z,51.10
2019-03-29T08:47:27.730Z,50.70
2019-03-29T08:50:04.001Z,50.20
2019-03-29T08:52:35.290Z,49.50
2019-03-29T08:55:09.159Z,49.20
2019-03-29T08:57:40.715Z,49.90
2019-03-29T09:00:15.780Z,48.90
2019-03-29T09:02:46.651Z,49.20
2019-03-29T09:05:26.252Z,49.80
2019-03-29T09:07:59.563Z,49.60
2019-03-29T09:10:32.949Z,50.00
2019-03-29T09:13:04.832Z,49.70
2019-03-29T09:15:39.438Z,48.80
2019-03-29T09:18:10.728Z,49.10
2019-03-29T09:20:51.090Z,49.50
2019-03-29T09:23:23.338Z,49.20
2019-03-29T09:25:54.504Z,48.80
2019-03-29T09:28:42.926Z,47.50
2019-03-29T09:31:26.765Z,47.70
2019-03-29T09:34:00.183Z,47.00
2019-03-29T09:36:31.723Z,47.20
2019-03-29T09:39:04.916Z,46.50
2019-03-29T09:41:37.979Z,45.60
2019-03-29T09:44:09.234Z,45.60
2019-03-29T09:46:41.140Z,46.60
2019-03-29T09:49:13.461Z,47.50
2019-03-29T09:51:57.975Z,47.80
2019-03-29T09:54:30.058Z,47.40
2019-03-29T09:57:01.602Z,45.80
2019-03-29T09:59:32.885Z,45.50
2019-03-29T10:02:03.935Z,45.20
2019-03-29T10:04:37.303Z,44.20
2019-03-29T10:07:10.163Z,44.70
2019-03-29T10:09:42.380Z,44.30
2019-03-29T10:12:13.832Z,43.70
2019-03-29T10:14:45.748Z,42.30
2019-03-29T10:17:17.506Z,41.60
2019-03-29T10:19:50.007Z,41.30
2019-03-29T10:22:21.844Z,40.40
2019-03-29T10:24:53.032Z,40.30
2019-03-29T10:27:24.184Z,39.90
2019-03-29T10:29:55.441Z,40.00
2019-03-29T10:32:29.405Z,40.60
2019-03-29T10:35:03.509Z,40.60
2019-03-29T10:37:35.260Z,40.40
2019-03-29T10:40:17.063Z,39.60
2019-03-29T10:42:57.604Z,38.40
2019-03-29T10:45:23.543Z,36.60
2019-03-29T10:47:55.690Z,36.00
2019-03-29T10:50:27.336Z,35.70
2019-03-29T10:52:58.506Z,35.10
2019-03-29T10:55:29.525Z,35.50
2019-03-29T10:58:00.771Z,35.60
2019-03-29T11:00:38.494Z,35.20
2019-03-29T11:03:13.154Z,33.60
2019-03-29T11:05:47.054Z,33.40
2019-03-29T11:08:20.454Z,32.50
2019-03-29T11:10:53.271Z,31.80
2019-03-29T11:13:27.957Z,31.40
2019-03-29T11:15:59.989Z,30.90
2019-03-29T11:18:31.755Z,31.20
2019-03-29T11:21:04.251Z,30.30
2019-03-29T11:23:37.496Z,30.30
2019-03-29T11:26:12.681Z,29.90
2019-03-29T11:28:44.841Z,30.30
2019-03-29T11:31:17.868Z,29.80
2019-03-29T11:33:49.347Z,29.90
2019-03-29T11:36:20.838Z,29.40
2019-03-29T11:38:52.063Z,29.80
2019-03-29T11:41:23.890Z,29.10
2019-03-29T11:43:55.366Z,28.70
2019-03-29T11:46:27.225Z,27.90
2019-03-29T11:48:58.363Z,28.60
2019-03-29T11:51:29.752Z,29.20
2019-03-29T11:54:02.056Z,29.70
2019-03-29T11:56:33.399Z,29.30
2019-03-29T11:59:13.732Z,28.70
2019-03-29T12:01:48.230Z,27.60
2019-03-29T12:04:19.713Z,27.70
2019-03-29T12:06:51.342Z,27.60
2019-03-29T12:09:22.577Z,27.00
2019-03-29T12:11:54.504Z,26.00
2019-03-29T12:14:25.914Z,25.90
2019-03-29T12:16:57.174Z,24.80
2019-03-29T12:19:30.428Z,25.40
2019-03-29T12:22:02.691Z,25.20
2019-03-29T12:24:33.922Z,25.20
2019-03-29T12:27:05.571Z,25.60
2019-03-29T12:29:37.312Z,25.40
2019-03-29T12:32:12.356Z,25.10
2019-03-29T12:34:46.260Z,24.60
2019-03-29T12:37:18.855Z,24.30
2019-03-29T12:39:50.507Z,23.50
2019-03-29T12:42:22.077Z,24.00
2019-03-29T12:44:53.315Z,24.40
2019-03-29T12:47:25.012Z,23.80
2019-03-29T12:50:01.473Z,23.00
2019-03-29T12:52:32.903Z,23.60
2019-03-29T12:55:04.302Z,24.10
2019-03-29T12:57:38.697Z,23.90
2019-03-29T13:00:09.251Z,23.90
2019-03-29T13:02:41.003Z,23.70
2019-03-29T13:05:12.172Z,22.90
2019-03-29T13:07:43.482Z,22.60
2019-03-29T13:10:20.015Z,22.40
2019-03-29T13:13:04.811Z,22.50
2019-03-29T13:15:36.671Z,22.70
2019-03-29T13:18:08.247Z,22.90
2019-03-29T13:20:39.880Z,22.90
2019-03-29T13:23:18.759Z,22.80
2019-03-29T13:26:09.577Z,23.70
2019-03-29T13:28:43.619Z,25.20
2019-03-29T13:31:15.969Z,26.90
2019-03-29T13:33:47.342Z,27.60
2019-03-29T13:36:19.005Z,29.00
2019-03-29T13:38:50.816Z,29.40
2019-03-29T13:41:22.819Z,30.00
2019-03-29T13:43:54.624Z,30.60
2019-03-29T13:46:26.599Z,31.80
2019-03-29T13:48:59.228Z,32.20
2019-03-29T13:51:33.122Z,32.50
2019-03-29T13:54:04.681Z,32.10
2019-03-29T13:56:35.897Z,32.80
2019-03-29T13:59:11.648Z,32.50
2019-03-29T14:01:44.040Z,32.50
2019-03-29T14:04:16.360Z,32.30
2019-03-29T14:06:47.376Z,32.90
2019-03-29T14:09:18.539Z,33.00
2019-03-29T14:11:49.684Z,33.20
2019-03-29T14:14:20.827Z,33.40
2019-03-29T14:16:52.409Z,33.30
2019-03-29T14:19:25.784Z,33.10
2019-03-29T14:21:56.474Z,33.20
2019-03-29T14:24:28.119Z,32.40
2019-03-29T14:26:59.806Z,32.40
2019-03-29T14:29:31.324Z,33.40
2019-03-29T14:32:02.501Z,32.70
2019-03-29T14:34:33.777Z,32.70
2019-03-29T14:37:05.274Z,32.30
2019-03-29T14:39:36.499Z,33.00
2019-03-29T14:42:07.603Z,33.00
2019-03-29T14:44:51.813Z,31.60
2019-03-29T14:47:12.380Z,31.70
2019-03-29T14:49:43.877Z,31.00
2019-03-29T14:52:15.281Z,32.50
2019-03-29T14:54:47.281Z,32.80
2019-03-29T14:57:24.439Z,32.90
2019-03-29T14:59:56.486Z,33.50
2019-03-29T15:02:29.101Z,32.70
2019-03-29T15:05:00.265Z,32.50
2019-03-29T15:07:31.636Z,32.60
2019-03-29T15:10:09.518Z,32.90
2019-03-29T15:12:42.002Z,33.00
2019-03-29T15:15:18.705Z,33.00
2019-03-29T15:17:49.829Z,32.90
2019-03-29T15:20:20.875Z,32.60
2019-03-29T15:22:53.597Z,32.80
2019-03-29T15:25:26.538Z,33.20
2019-03-29T15:27:58.094Z,33.10
2019-03-29T15:30:30.896Z,33.10
2019-03-29T15:33:04.926Z,32.50
2019-03-29T15:35:40.032Z,32.50
2019-03-29T15:38:11.380Z,31.10
2019-03-29T15:40:46.754Z,32.30
2019-03-29T15:43:18.251Z,32.90
2019-03-29T15:45:52.488Z,32.80
2019-03-29T15:48:29.043Z,32.90
2019-03-29T15:51:00.420Z,33.20
2019-03-29T15:53:34.070Z,33.30
2019-03-29T15:56:08.095Z,34.00
2019-03-29T15:58:42.890Z,33.00
2019-03-29T16:01:16.693Z,32.90
2019-03-29T16:03:49.239Z,33.20
2019-03-29T16:06:26.311Z,34.00
2019-03-29T16:08:57.388Z,34.00
2019-03-29T16:11:33.730Z,34.20
2019-03-29T16:14:05.969Z,34.40
2019-03-29T16:16:38.573Z,34.40
2019-03-29T16:19:09.678Z,34.60
2019-03-29T16:21:40.871Z,34.70
2019-03-29T16:24:15.900Z,34.90
2019-03-29T16:26:47.967Z,35.30
2019-03-29T16:29:20.852Z,35.60
2019-03-29T16:31:54.656Z,35.40
2019-03-29T16:34:27.625Z,36.10
2019-03-29T16:37:20.515Z,35.90
2019-03-29T16:39:59.188Z,36.30
2019-03-29T16:42:31.648Z,36.80
2019-03-29T16:45:03.488Z,36.70
2019-03-29T16:47:37.761Z,36.50
2019-03-29T16:50:10.778Z,37.30
2019-03-29T16:52:42.653Z,37.00
2019-03-29T16:55:14.309Z,37.30
2019-03-29T16:57:46.086Z,37.60
2019-03-29T17:00:21.044Z,37.50
2019-03-29T17:02:52.748Z,37.60
2019-03-29T17:05:24.104Z,37.50
2019-03-29T17:07:55.613Z,37.80
2019-03-29T17:10:28.458Z,38.10
2019-03-29T17:13:03.459Z,38.60
2019-03-29T17:15:35.516Z,38.00
2019-03-29T17:18:06.944Z,38.10
2019-03-29T17:20:38.687Z,38.30
2019-03-29T17:23:13.413Z,38.20
2019-03-29T17:25:45.166Z,38.50
2019-03-29T17:28:17.208Z,38.70
2019-03-29T17:30:52.813Z,38.60
2019-03-29T17:33:24.002Z,38.70
2019-03-29T17:35:57.383Z,38.90
2019-03-29T17:38:28.690Z,38.90
2019-03-29T17:41:00.203Z,39.30
2019-03-29T17:43:31.476Z,39.40
2019-03-29T17:46:16.064Z,39.70
2019-03-29T17:48:47.158Z,39.50
2019-03-29T17:51:21.067Z,39.60
2019-03-29T17:53:53.536Z,39.70
2019-03-29T17:56:24.646Z,40.00
2019-03-29T17:58:56.286Z,40.10
2019-03-29T18:01:28.151Z,40.70
2019-03-29T18:03:59.706Z,40.60
2019-03-29T18:06:30.966Z,40.70
2019-03-29T18:09:02.284Z,40.80
2019-03-29T18:11:37.209Z,42.10
2019-03-29T18:14:10.023Z,42.60
2019-03-29T18:16:41.519Z,42.70
2019-03-29T18:19:13.266Z,43.50
2019-03-29T18:21:45.078Z,44.20
2019-03-29T18:24:23.031Z,44.60
2019-03-29T18:27:02.724Z,45.10
2019-03-29T18:29:34.971Z,45.00
2019-03-29T18:32:07.078Z,45.00
2019-03-29T18:34:41.614Z,45.00
2019-03-29T18:37:13.691Z,45.10
2019-03-29T18:39:45.238Z,45.30
2019-03-29T18:42:16.420Z,45.40
2019-03-29T18:44:48.706Z,45.80
2019-03-29T18:47:20.652Z,45.80
2019-03-29T18:49:52.168Z,46.20
2019-03-29T18:52:24.352Z,46.20
2019-03-29T18:54:56.120Z,46.20
2019-03-29T18:57:28.527Z,46.30
2019-03-29T19:00:00.372Z,46.30
2019-03-29T19:02:31.818Z,46.30
2019-03-29T19:05:07.702Z,46.50
2019-03-29T19:07:40.681Z,46.70
2019-03-29T19:10:12.708Z,46.70
2019-03-29T19:12:59.496Z,46.80
2019-03-29T19:15:31.238Z,46.80
2019-03-29T19:18:03.100Z,46.80
2019-03-29T19:20:34.632Z,46.80
2019-03-29T19:23:06.227Z,46.90
2019-03-29T19:25:41.584Z,47.10
2019-03-29T19:28:12.743Z,47.10
2019-03-29T19:30:44.725Z,47.20
2019-03-29T19:33:16.292Z,47.10
2019-03-29T19:35:47.638Z,47.40
2019-03-29T19:38:18.748Z,47.50
2019-03-29T19:40:49.955Z,47.40
2019-03-29T19:43:21.731Z,47.30
2019-03-29T19:45:52.884Z,47.40
2019-03-29T19:48:25.684Z,47.90
2019-03-29T19:51:09.490Z,48.40
2019-03-29T19:53:42.243Z,48.20
2019-03-29T19:56:20.150Z,48.50
2019-03-29T19:58:57.716Z,48.50
2019-03-29T20:01:37.310Z,48.40
2019-03-29T20:04:10.050Z,48.50
2019-03-29T20:06:42.003Z,48.60
2019-03-29T20:09:13.595Z,48.50
2019-03-29T20:11:45.211Z,48.60
2019-03-29T20:14:16.753Z,48.60
2019-03-29T20:16:48.444Z,48.50
2019-03-29T20:19:20.347Z,48.50
2019-03-29T20:21:53.333Z,49.20
2019-03-29T20:24:24.378Z,48.80
2019-03-29T20:26:55.867Z,48.50
2019-03-29T20:29:27.375Z,48.50
2019-03-29T20:31:59.255Z,48.50
2019-03-29T20:34:31.147Z,48.50
2019-03-29T20:37:02.367Z,49.00
2019-03-29T20:39:35.072Z,48.50
2019-03-29T20:42:06.718Z,48.50
2019-03-29T20:44:39.687Z,48.10
2019-03-29T20:47:11.043Z,48.50
2019-03-29T20:49:42.427Z,48.40
2019-03-29T20:52:15.058Z,48.80
2019-03-29T20:54:46.512Z,49.10
2019-03-29T20:57:17.757Z,50.00
2019-03-29T20:59:49.654Z,49.60
2019-03-29T21:02:21.538Z,50.20
2019-03-29T21:04:53.487Z,50.20
2019-03-29T21:07:26.263Z,50.20
2019-03-29T21:09:57.280Z,50.40
2019-03-29T21:12:30.810Z,50.30
2019-03-29T21:15:04.306Z,50.30
2019-03-29T21:17:35.641Z,50.00
2019-03-29T21:20:08.636Z,50.20
2019-03-29T21:22:40.730Z,49.90
2019-03-29T21:25:12.115Z,50.30
2019-03-29T21:27:43.990Z,50.60
2019-03-29T21:30:16.170Z,50.60
2019-03-29T21:32:47.349Z,50.90
2019-03-29T21:35:18.977Z,51.00
2019-03-29T21:37:50.870Z,51.30
2019-03-29T21:40:22.027Z,51.40
2019-03-29T21:42:53.791Z,51.30
2019-03-29T21:45:28.963Z,51.40
2019-03-29T21:48:08.453Z,51.30
2019-03-29T21:50:32.369Z,51.50
2019-03-29T21:53:03.856Z,51.70
2019-03-29T21:55:35.264Z,51.90
2019-03-29T21:58:07.233Z,52.00
2019-03-29T22:00:38.580Z,51.90
2019-03-29T22:03:09.803Z,52.10
2019-03-29T22:05:45.398Z,51.80
2019-03-29T22:08:18.106Z,51.50
2019-03-29T22:10:49.886Z,51.20
2019-03-29T22:13:21.008Z,51.80
2019-03-29T22:15:52.970Z,52.00
2019-03-29T22:18:37.389Z,52.10
2019-03-29T22:20:59.245Z,52.20
2019-03-29T22:23:31.141Z,52.50
2019-03-29T22:26:02.599Z,52.70
2019-03-29T22:28:41.563Z,53.50
2019-03-29T22:31:13.554Z,52.80
2019-03-29T22:33:46.948Z,52.40
2019-03-29T22:36:18.298Z,52.20
2019-03-29T22:38:50.311Z,52.00
2019-03-29T22:41:24.899Z,52.40
2019-03-29T22:43:58.923Z,52.40
2019-03-29T22:46:33.022Z,52.50
2019-03-29T22:49:05.322Z,52.60
2019-03-29T22:51:36.459Z,52.80
2019-03-29T22:54:07.727Z,52.90
2019-03-29T22:56:39.132Z,53.00
2019-03-29T22:59:10.410Z,52.90
2019-03-29T23:01:48.030Z,53.00
2019-03-29T23:04:19.183Z,53.80
2019-03-29T23:06:50.471Z,53.00
2019-03-29T23:09:22.746Z,52.90
2019-03-29T23:11:53.904Z,53.10
2019-03-29T23:14:26.959Z,53.00
2019-03-29T23:16:58.035Z,52.90
2019-03-29T23:19:29.470Z,53.30
2019-03-29T23:22:01.223Z,53.40
2019-03-29T23:24:32.427Z,54.10
2019-03-29T23:27:03.552Z,54.90
2019-03-29T23:29:34.832Z,55.10
2019-03-29T23:32:06.128Z,55.40
2019-03-29T23:34:37.608Z,55.60
2019-03-29T23:37:12.572Z,56.00
2019-03-29T23:39:45.781Z,55.60
2019-03-29T23:42:19.877Z,55.60
2019-03-29T23:44:51.466Z,54.80
2019-03-29T23:47:22.875Z,55.00
2019-03-29T23:49:55.237Z,54.60
2019-03-29T23:52:26.483Z,54.70
2019-03-29T23:54:58.223Z,54.70
2019-03-29T23:57:29.424Z,55.10
